createdAt,value
2023-05-14T00:01:20.561Z,65.53
2023-05-14T00:03:48.892Z,68.03
2023-05-14T00:06:16.140Z,67.85
2023-05-14T00:08:42.990Z,53.40
2023-05-14T00:11:09.775Z,61.08
2023-05-14T00:13:36.900Z,56.85
2023-05-14T00:16:04.191Z,56.67
2023-05-14T00:18:31.093Z,61.20
2023-05-14T00:20:59.414Z,63.92
2023-05-14T00:23:26.291Z,66.05
2023-05-14T00:25:53.142Z,66.90
2023-05-14T00:28:20.468Z,62.03
2023-05-14T00:30:47.344Z,59.95
2023-05-14T00:33:14.138Z,60.45
2023-05-14T00:35:41.062Z,63.40
2023-05-14T00:38:09.876Z,57.67
2023-05-14T00:40:36.741Z,61.40
2023-05-14T00:43:03.790Z,62.28
2023-05-14T00:45:31.082Z,60.53
2023-05-14T00:47:57.947Z,55.72
2023-05-14T00:50:25.334Z,81.32
2023-05-14T00:52:52.560Z,56.50
2023-05-14T00:55:21.892Z,66.22
2023-05-14T00:57:50.419Z,58.75
2023-05-14T01:00:18.133Z,54.15
2023-05-14T01:02:45.424Z,58.65
2023-05-14T01:05:12.615Z,62.85
2023-05-14T01:07:49.418Z,68.65
2023-05-14T01:10:24.550Z,66.70
2023-05-14T01:13:00.411Z,67.65
2023-05-14T01:15:31.117Z,72.97
2023-05-14T01:18:01.902Z,78.07
2023-05-14T01:20:28.740Z,78.13
2023-05-14T01:22:56.922Z,87.15
2023-05-14T01:25:23.910Z,84.18
2023-05-14T01:27:59.501Z,70.88
2023-05-14T01:30:31.118Z,80.72
2023-05-14T01:33:00.704Z,72.63
2023-05-14T01:35:29.268Z,60.70
2023-05-14T01:38:00.706Z,61.65
2023-05-14T01:40:27.865Z,67.50
2023-05-14T01:42:55.581Z,70.00
2023-05-14T01:45:23.071Z,66.53
2023-05-14T01:47:50.084Z,62.95
2023-05-14T01:50:17.087Z,61.00
2023-05-14T01:52:44.105Z,66.35
2023-05-14T01:55:12.373Z,68.93
2023-05-14T01:57:39.434Z,79.70
2023-05-14T02:00:07.519Z,62.95
2023-05-14T02:02:34.550Z,68.80
2023-05-14T02:05:01.468Z,57.72
2023-05-14T02:07:28.302Z,72.90
2023-05-14T02:09:55.183Z,57.00
2023-05-14T02:12:23.531Z,92.05
2023-05-14T02:14:50.387Z,70.05
2023-05-14T02:17:17.905Z,68.13
2023-05-14T02:19:44.732Z,48.30
2023-05-14T02:22:11.881Z,63.60
2023-05-14T02:24:38.852Z,63.95
2023-05-14T02:27:06.402Z,59.50
2023-05-14T02:29:34.739Z,56.60
2023-05-14T02:32:01.590Z,74.15
2023-05-14T02:34:28.508Z,62.65
2023-05-14T02:36:55.607Z,63.63
2023-05-14T02:39:22.519Z,57.17
2023-05-14T02:41:49.314Z,58.08
2023-05-14T02:44:16.161Z,62.65
2023-05-14T02:46:45.698Z,63.00
2023-05-14T02:49:12.586Z,48.88
2023-05-14T02:51:39.964Z,63.88
2023-05-14T02:54:07.266Z,62.90
2023-05-14T02:56:33.953Z,60.38
2023-05-14T02:59:00.819Z,70.95
2023-05-14T03:01:28.563Z,60.45
2023-05-14T03:03:57.367Z,69.88
2023-05-14T03:06:24.201Z,67.88
2023-05-14T03:08:51.147Z,66.63
2023-05-14T03:11:18.004Z,64.85
2023-05-14T03:13:44.817Z,58.25
2023-05-14T03:16:11.685Z,62.13
2023-05-14T03:18:38.583Z,51.90
2023-05-14T03:21:06.856Z,65.15
2023-05-14T03:23:35.116Z,51.10
2023-05-14T03:26:02.316Z,52.83
2023-05-14T03:28:29.228Z,57.67
2023-05-14T03:30:56.097Z,51.97
2023-05-14T03:33:23.701Z,45.33
2023-05-14T03:35:51.641Z,70.88
2023-05-14T03:38:19.888Z,50.13
2023-05-14T03:40:46.822Z,66.05
2023-05-14T03:43:13.659Z,61.75
2023-05-14T03:45:40.544Z,51.60
2023-05-14T03:48:07.475Z,55.03
2023-05-14T03:50:34.485Z,53.88
2023-05-14T03:53:01.457Z,59.92
2023-05-14T03:55:29.846Z,56.20
2023-05-14T03:57:56.852Z,56.88
2023-05-14T04:00:24.014Z,68.07
2023-05-14T04:02:51.247Z,56.95
2023-05-14T04:05:18.207Z,70.32
2023-05-14T04:07:46.168Z,56.05
2023-05-14T04:10:13.720Z,54.42
2023-05-14T04:12:42.006Z,53.42
2023-05-14T04:15:10.249Z,56.40
2023-05-14T04:17:37.117Z,53.92
2023-05-14T04:20:04.698Z,49.60
2023-05-14T04:22:32.370Z,59.45
2023-05-14T04:24:59.233Z,50.38
2023-05-14T04:27:26.046Z,67.18
2023-05-14T04:29:54.422Z,53.75
2023-05-14T04:32:21.549Z,50.72
2023-05-14T04:34:48.487Z,60.28
2023-05-14T04:37:15.875Z,55.92
2023-05-14T04:39:42.823Z,52.55
2023-05-14T04:42:09.853Z,53.97
2023-05-14T04:44:37.692Z,51.40
2023-05-14T04:47:07.002Z,50.95
2023-05-14T04:49:33.876Z,55.22
2023-05-14T04:52:01.086Z,51.78
2023-05-14T04:54:27.975Z,47.47
2023-05-14T04:56:55.996Z,49.10
2023-05-14T04:59:22.999Z,54.72
2023-05-14T05:01:49.903Z,52.25
2023-05-14T05:04:18.267Z,62.60
2023-05-14T05:06:45.280Z,43.50
2023-05-14T05:09:12.397Z,47.67
2023-05-14T05:11:39.249Z,47.13
2023-05-14T05:14:06.049Z,44.22
2023-05-14T05:16:32.976Z,48.03
2023-05-14T05:18:59.976Z,45.40
2023-05-14T05:21:28.442Z,45.78
2023-05-14T05:23:56.002Z,48.50
2023-05-14T05:26:23.090Z,51.20
2023-05-14T05:28:50.037Z,44.47
2023-05-14T05:31:19.049Z,55.35
2023-05-14T05:33:46.732Z,39.67
2023-05-14T05:36:13.582Z,37.90
2023-05-14T05:38:41.794Z,40.50
2023-05-14T05:41:08.635Z,40.83
2023-05-14T05:43:35.535Z,35.42
2023-05-14T05:46:02.505Z,32.75
2023-05-14T05:48:29.440Z,35.97
2023-05-14T05:50:56.458Z,39.28
2023-05-14T05:53:23.418Z,46.03
2023-05-14T05:55:51.721Z,52.20
2023-05-14T05:58:19.111Z,44.45
2023-05-14T06:00:47.150Z,58.38
2023-05-14T06:03:14.163Z,40.70
2023-05-14T06:05:41.204Z,41.40
2023-05-14T06:08:08.105Z,55.00
2023-05-14T06:10:36.230Z,37.92
2023-05-14T06:13:04.597Z,45.67
2023-05-14T06:15:31.462Z,39.55
2023-05-14T06:17:58.415Z,43.58
2023-05-14T06:20:25.667Z,46.03
2023-05-14T06:22:52.731Z,46.92
2023-05-14T06:25:19.830Z,39.22
2023-05-14T06:27:46.711Z,41.63
2023-05-14T06:30:16.048Z,37.28
2023-05-14T06:32:42.979Z,47.50
2023-05-14T06:35:10.483Z,36.42
2023-05-14T06:37:37.377Z,35.47
2023-05-14T06:40:05.572Z,35.88
2023-05-14T06:42:32.465Z,36.38
2023-05-14T06:44:59.545Z,37.63
2023-05-14T06:47:27.803Z,45.80
2023-05-14T06:49:55.903Z,34.03
2023-05-14T06:52:22.782Z,42.40
2023-05-14T06:54:49.603Z,34.60
2023-05-14T06:57:16.466Z,35.53
2023-05-14T06:59:43.435Z,34.00
2023-05-14T07:02:10.636Z,33.00
2023-05-14T07:04:38.928Z,31.10
2023-05-14T07:07:05.977Z,32.90
2023-05-14T07:09:32.935Z,31.90
2023-05-14T07:11:59.774Z,37.17
2023-05-14T07:14:26.851Z,32.92
2023-05-14T07:16:54.298Z,34.67
2023-05-14T07:19:22.426Z,33.13
2023-05-14T07:21:51.097Z,40.28
2023-05-14T07:24:17.913Z,33.20
2023-05-14T07:26:44.934Z,33.05
2023-05-14T07:29:11.874Z,32.88
2023-05-14T07:31:38.882Z,23.65
2023-05-14T07:34:05.708Z,28.08
2023-05-14T07:36:32.729Z,23.13
2023-05-14T07:39:01.019Z,27.48
2023-05-14T07:41:27.894Z,28.02
2023-05-14T07:43:54.746Z,27.02
2023-05-14T07:46:21.665Z,26.73
2023-05-14T07:48:48.469Z,26.38
2023-05-14T07:51:15.369Z,29.38
2023-05-14T07:53:42.188Z,27.17
2023-05-14T07:56:10.566Z,28.73
2023-05-14T07:58:37.453Z,25.35
2023-05-14T08:01:07.202Z,23.38
2023-05-14T08:03:34.364Z,25.63
2023-05-14T08:06:01.265Z,27.27
2023-05-14T08:08:28.054Z,25.38
2023-05-14T08:10:54.978Z,21.73
2023-05-14T08:13:23.194Z,33.38
2023-05-14T08:15:49.990Z,20.35
2023-05-14T08:18:17.061Z,22.90
2023-05-14T08:20:43.940Z,23.00
2023-05-14T08:23:11.244Z,29.17
2023-05-14T08:25:38.153Z,19.90
2023-05-14T08:28:05.517Z,22.08
2023-05-14T08:30:34.320Z,37.28
2023-05-14T08:33:01.301Z,27.70
2023-05-14T08:35:28.145Z,25.65
2023-05-14T08:37:54.995Z,19.88
2023-05-14T08:40:22.525Z,20.83
2023-05-14T08:42:51.256Z,21.55
2023-05-14T08:45:19.602Z,22.45
2023-05-14T08:47:50.617Z,23.63
2023-05-14T08:50:20.399Z,22.38
2023-05-14T08:52:49.044Z,20.40
2023-05-14T08:55:15.950Z,21.25
2023-05-14T08:57:42.959Z,26.27
2023-05-14T09:00:13.519Z,19.80
2023-05-14T09:02:41.726Z,20.55
2023-05-14T09:05:11.021Z,21.85
2023-05-14T09:07:37.936Z,26.45
2023-05-14T09:10:05.731Z,21.02
2023-05-14T09:12:32.728Z,33.47
2023-05-14T09:14:59.559Z,19.38
2023-05-14T09:17:30.032Z,19.98
2023-05-14T09:19:57.010Z,20.65
2023-05-14T09:22:25.293Z,23.85
2023-05-14T09:25:06.233Z,19.58
2023-05-14T09:27:34.146Z,21.80
2023-05-14T09:30:10.672Z,21.08
2023-05-14T09:32:39.486Z,19.67
2023-05-14T09:35:14.713Z,19.38
2023-05-14T09:37:44.038Z,21.35
2023-05-14T09:40:11.939Z,28.23
2023-05-14T09:42:38.795Z,25.17
2023-05-14T09:45:07.720Z,22.70
2023-05-14T09:47:34.742Z,22.88
2023-05-14T09:50:01.629Z,19.27
2023-05-14T09:52:28.573Z,23.13
2023-05-14T09:54:57.014Z,22.05
2023-05-14T09:57:24.141Z,19.00
2023-05-14T09:59:50.980Z,25.40
2023-05-14T10:02:23.288Z,23.08
2023-05-14T10:04:51.973Z,19.33
2023-05-14T10:07:23.383Z,19.42
2023-05-14T10:09:59.817Z,17.88
2023-05-14T10:12:29.455Z,22.85
2023-05-14T10:14:59.926Z,26.13
2023-05-14T10:17:31.279Z,22.33
2023-05-14T10:20:00.056Z,23.73
2023-05-14T10:22:33.951Z,20.48
2023-05-14T10:25:03.159Z,22.80
2023-05-14T10:27:30.540Z,26.23
2023-05-14T10:29:57.972Z,19.40
2023-05-14T10:32:26.408Z,21.33
2023-05-14T10:34:54.049Z,24.33
2023-05-14T10:37:23.148Z,23.30
2023-05-14T10:39:51.721Z,23.25
2023-05-14T10:42:21.368Z,18.13
2023-05-14T10:44:52.197Z,22.02
2023-05-14T10:47:19.329Z,24.92
2023-05-14T10:49:49.193Z,18.25
2023-05-14T10:52:19.741Z,21.48
2023-05-14T10:54:57.059Z,23.13
2023-05-14T10:57:27.606Z,31.90
2023-05-14T10:59:56.069Z,22.05
2023-05-14T11:02:25.184Z,23.30
2023-05-14T11:04:57.358Z,20.08
2023-05-14T11:07:27.842Z,19.73
2023-05-14T11:10:00.089Z,20.45
2023-05-14T11:12:28.593Z,24.77
2023-05-14T11:14:58.211Z,23.85
2023-05-14T11:17:26.449Z,26.48
2023-05-14T11:19:54.252Z,20.65
2023-05-14T11:22:21.203Z,19.13
2023-05-14T11:24:48.104Z,23.15
2023-05-14T11:27:16.025Z,17.33
2023-05-14T11:29:46.962Z,19.13
2023-05-14T11:32:15.111Z,22.85
2023-05-14T11:34:44.850Z,20.33
2023-05-14T11:37:15.367Z,18.08
2023-05-14T11:39:48.268Z,21.63
2023-05-14T11:42:17.477Z,21.80
2023-05-14T11:44:47.049Z,30.38
2023-05-14T11:47:13.898Z,17.75
2023-05-14T11:49:41.005Z,22.30
2023-05-14T11:52:11.610Z,21.80
2023-05-14T11:54:38.487Z,21.30
2023-05-14T11:57:09.604Z,28.25
2023-05-14T11:59:36.887Z,21.40
2023-05-14T12:02:06.155Z,21.60
2023-05-14T12:04:33.173Z,19.90
2023-05-14T12:07:00.799Z,20.95
2023-05-14T12:09:27.694Z,20.25
2023-05-14T12:11:54.546Z,20.35
2023-05-14T12:14:23.085Z,23.15
2023-05-14T12:16:51.579Z,17.30
2023-05-14T12:19:21.308Z,17.95
2023-05-14T12:21:50.911Z,32.40
2023-05-14T12:24:20.030Z,24.05
2023-05-14T12:26:48.419Z,19.15
2023-05-14T12:29:16.442Z,15.38
2023-05-14T12:31:47.887Z,18.65
2023-05-14T12:34:15.425Z,19.45
2023-05-14T12:36:44.116Z,16.90
2023-05-14T12:39:12.231Z,20.92
2023-05-14T12:41:39.129Z,18.58
2023-05-14T12:44:06.346Z,22.30
2023-05-14T12:46:34.501Z,14.38
2023-05-14T12:49:01.398Z,16.52
2023-05-14T12:51:28.390Z,18.10
2023-05-14T12:53:56.674Z,14.95
2023-05-14T12:56:27.898Z,19.33
2023-05-14T12:58:55.803Z,16.73
2023-05-14T13:01:22.700Z,48.35
2023-05-14T13:03:49.767Z,18.13
2023-05-14T13:06:16.712Z,17.75
2023-05-14T13:08:43.923Z,17.58
2023-05-14T13:11:12.253Z,30.40
2023-05-14T13:13:39.150Z,20.60
2023-05-14T13:16:06.711Z,17.73
2023-05-14T13:18:33.589Z,17.48
2023-05-14T13:21:00.739Z,20.45
2023-05-14T13:23:27.651Z,15.50
2023-05-14T13:25:54.565Z,18.75
2023-05-14T13:28:22.839Z,22.48
2023-05-14T13:31:05.072Z,17.98
2023-05-14T13:33:32.621Z,16.23
2023-05-14T13:35:59.481Z,22.55
2023-05-14T13:38:26.377Z,17.70
2023-05-14T13:40:54.389Z,20.35
2023-05-14T13:43:22.664Z,24.35
2023-05-14T13:45:50.007Z,16.80
2023-05-14T13:48:16.952Z,20.83
2023-05-14T13:50:43.976Z,15.73
2023-05-14T13:53:10.946Z,21.30
2023-05-14T13:55:37.817Z,25.63
2023-05-14T13:58:04.749Z,20.60
2023-05-14T14:00:32.974Z,17.73
2023-05-14T14:02:59.880Z,15.32
2023-05-14T14:05:28.734Z,16.42
2023-05-14T14:08:01.113Z,16.02
2023-05-14T14:10:35.542Z,15.75
2023-05-14T14:13:02.410Z,19.38
2023-05-14T14:15:29.413Z,17.15
2023-05-14T14:17:57.782Z,20.40
2023-05-14T14:20:24.667Z,12.40
2023-05-14T14:22:51.613Z,14.65
2023-05-14T14:25:18.553Z,15.10
2023-05-14T14:27:47.419Z,23.52
2023-05-14T14:30:15.753Z,17.92
2023-05-14T14:32:43.793Z,18.38
2023-05-14T14:35:13.259Z,14.98
2023-05-14T14:37:41.118Z,16.92
2023-05-14T14:40:09.971Z,21.55
2023-05-14T14:42:37.786Z,13.25
2023-05-14T14:45:05.594Z,13.60
2023-05-14T14:47:32.567Z,17.52
2023-05-14T14:49:59.460Z,17.08
2023-05-14T14:52:28.376Z,22.63
2023-05-14T14:54:58.277Z,20.90
2023-05-14T14:57:25.256Z,18.25
2023-05-14T14:59:52.091Z,16.17
2023-05-14T15:02:19.062Z,23.30
2023-05-14T15:04:46.019Z,25.55
2023-05-14T15:07:12.870Z,16.85
2023-05-14T15:09:41.214Z,18.80
2023-05-14T15:12:09.091Z,19.70
2023-05-14T15:14:35.961Z,19.00
2023-05-14T15:17:02.906Z,19.13
2023-05-14T15:19:31.316Z,22.95
2023-05-14T15:21:58.218Z,19.00
2023-05-14T15:24:26.268Z,19.05
2023-05-14T15:26:54.595Z,24.15
2023-05-14T15:29:21.446Z,23.92
2023-05-14T15:31:48.429Z,21.77
2023-05-14T15:34:15.310Z,20.73
2023-05-14T15:36:42.192Z,18.20
2023-05-14T15:39:10.628Z,18.48
2023-05-14T15:41:37.877Z,26.02
2023-05-14T15:44:06.279Z,20.23
2023-05-14T15:46:33.169Z,20.05
2023-05-14T15:49:00.072Z,21.70
2023-05-14T15:51:26.975Z,19.73
2023-05-14T15:53:54.236Z,26.67
2023-05-14T15:56:21.167Z,28.10
2023-05-14T15:58:48.383Z,23.50
2023-05-14T16:01:16.741Z,18.58
2023-05-14T16:03:43.830Z,21.92
2023-05-14T16:06:11.625Z,19.40
2023-05-14T16:08:38.746Z,22.35
2023-05-14T16:11:06.414Z,18.33
2023-05-14T16:13:33.826Z,23.90
2023-05-14T16:16:01.360Z,20.83
2023-05-14T16:18:31.705Z,21.17
2023-05-14T16:20:58.810Z,22.08
2023-05-14T16:23:25.735Z,22.75
2023-05-14T16:25:52.681Z,23.42
2023-05-14T16:28:19.599Z,23.55
2023-05-14T16:30:46.339Z,24.33
2023-05-14T16:33:13.210Z,23.15
2023-05-14T16:35:41.443Z,23.35
2023-05-14T16:38:08.311Z,26.45
2023-05-14T16:40:35.198Z,24.60
2023-05-14T16:43:02.009Z,22.15
2023-05-14T16:45:28.890Z,20.02
2023-05-14T16:47:55.785Z,24.83
2023-05-14T16:50:22.583Z,21.15
2023-05-14T16:52:50.774Z,21.02
2023-05-14T16:55:19.461Z,15.65
2023-05-14T16:57:46.322Z,62.38
2023-05-14T17:00:15.105Z,19.45
2023-05-14T17:02:41.974Z,22.73
2023-05-14T17:05:09.551Z,25.60
2023-05-14T17:07:38.147Z,17.33
2023-05-14T17:10:07.498Z,23.58
2023-05-14T17:12:34.488Z,23.75
2023-05-14T17:15:03.706Z,18.67
2023-05-14T17:17:32.746Z,18.83
2023-05-14T17:19:59.711Z,19.55
2023-05-14T17:22:26.583Z,16.92
2023-05-14T17:24:53.453Z,19.60
2023-05-14T17:27:21.722Z,22.77
2023-05-14T17:29:51.101Z,17.45
2023-05-14T17:32:18.349Z,14.93
2023-05-14T17:34:45.332Z,17.48
2023-05-14T17:37:12.418Z,24.05
2023-05-14T17:39:39.290Z,27.05
2023-05-14T17:42:06.908Z,18.80
2023-05-14T17:44:36.374Z,21.73
2023-05-14T17:47:04.815Z,17.42
2023-05-14T17:49:31.787Z,20.20
2023-05-14T17:51:58.780Z,16.90
2023-05-14T17:54:25.786Z,20.60
2023-05-14T17:56:52.940Z,24.65
2023-05-14T17:59:20.867Z,22.42
2023-05-14T18:01:50.223Z,20.02
2023-05-14T18:04:17.140Z,22.05
2023-05-14T18:06:44.669Z,26.20
2023-05-14T18:09:11.583Z,22.63
2023-05-14T18:11:38.372Z,22.02
2023-05-14T18:14:05.203Z,27.38
2023-05-14T18:16:32.141Z,23.88
2023-05-14T18:19:00.590Z,25.17
2023-05-14T18:21:27.419Z,25.05
2023-05-14T18:23:54.440Z,22.63
2023-05-14T18:26:22.153Z,26.95
2023-05-14T18:28:49.060Z,24.80
2023-05-14T18:31:16.130Z,33.83
2023-05-14T18:33:43.241Z,27.38
2023-05-14T18:36:11.834Z,22.75
2023-05-14T18:38:38.887Z,26.85
2023-05-14T18:41:05.709Z,33.95
2023-05-14T18:43:32.546Z,28.98
2023-05-14T18:45:59.488Z,26.63
2023-05-14T18:48:26.451Z,30.00
2023-05-14T18:50:53.341Z,24.42
2023-05-14T18:53:21.679Z,27.15
2023-05-14T18:55:48.603Z,29.63
2023-05-14T18:58:17.538Z,28.00
2023-05-14T19:00:44.408Z,25.20
2023-05-14T19:03:11.446Z,26.48
2023-05-14T19:05:38.392Z,25.58
2023-05-14T19:08:05.964Z,26.48
2023-05-14T19:10:34.827Z,31.85
2023-05-14T19:13:02.175Z,31.45
2023-05-14T19:15:29.096Z,36.83
2023-05-14T19:17:56.124Z,31.35
2023-05-14T19:20:23.084Z,28.48
2023-05-14T19:22:49.953Z,36.78
2023-05-14T19:25:16.885Z,28.92
2023-05-14T19:27:47.695Z,29.58
2023-05-14T19:30:14.988Z,29.63
2023-05-14T19:32:41.920Z,27.80
2023-05-14T19:35:09.469Z,29.38
2023-05-14T19:37:36.370Z,27.20
2023-05-14T19:40:03.663Z,29.08
2023-05-14T19:42:31.841Z,33.40
2023-05-14T19:45:00.060Z,30.55
2023-05-14T19:47:28.629Z,29.10
2023-05-14T19:49:55.532Z,31.45
2023-05-14T19:52:22.390Z,36.28
2023-05-14T19:54:49.297Z,29.73
2023-05-14T19:57:16.266Z,31.95
2023-05-14T19:59:44.406Z,33.13
2023-05-14T20:02:18.504Z,29.55
2023-05-14T20:04:46.277Z,34.47
2023-05-14T20:07:15.697Z,29.67
2023-05-14T20:09:42.729Z,26.85
2023-05-14T20:12:09.965Z,35.90
2023-05-14T20:14:36.908Z,28.25
2023-05-14T20:17:04.564Z,49.65
2023-05-14T20:19:32.922Z,28.17
2023-05-14T20:21:59.831Z,30.58
2023-05-14T20:24:26.634Z,29.67
2023-05-14T20:26:53.560Z,34.80
2023-05-14T20:29:20.447Z,39.90
2023-05-14T20:31:47.251Z,33.58
2023-05-14T20:34:14.241Z,33.80
2023-05-14T20:36:42.498Z,32.50
2023-05-14T20:39:11.007Z,38.38
2023-05-14T20:41:37.909Z,35.17
2023-05-14T20:44:04.886Z,35.17
2023-05-14T20:46:31.793Z,31.45
2023-05-14T20:49:01.673Z,38.22
2023-05-14T20:51:28.567Z,32.65
2023-05-14T20:53:56.854Z,30.20
2023-05-14T20:56:23.723Z,34.72
2023-05-14T20:58:50.591Z,39.40
2023-05-14T21:01:17.530Z,35.13
2023-05-14T21:03:44.598Z,31.55
2023-05-14T21:06:11.593Z,32.88
2023-05-14T21:08:40.403Z,36.42
2023-05-14T21:11:08.629Z,32.20
2023-05-14T21:13:35.848Z,33.35
2023-05-14T21:16:02.824Z,38.00
2023-05-14T21:18:32.833Z,37.45
2023-05-14T21:20:59.835Z,33.83
2023-05-14T21:23:26.760Z,36.55
2023-05-14T21:25:54.964Z,38.80
2023-05-14T21:28:23.250Z,41.28
2023-05-14T21:30:51.015Z,39.15
2023-05-14T21:33:17.912Z,39.55
2023-05-14T21:35:44.716Z,43.75
2023-05-14T21:38:11.901Z,42.05
2023-05-14T21:40:38.775Z,39.70
2023-05-14T21:43:05.690Z,49.78
2023-05-14T21:45:33.894Z,37.47
2023-05-14T21:48:00.916Z,36.67
2023-05-14T21:50:28.021Z,39.53
2023-05-14T21:52:55.001Z,34.67
2023-05-14T21:55:22.192Z,49.47
2023-05-14T21:57:49.524Z,47.83
2023-05-14T22:00:23.488Z,44.45
2023-05-14T22:02:52.706Z,46.67
2023-05-14T22:05:19.759Z,41.22
2023-05-14T22:07:46.652Z,53.92
2023-05-14T22:10:14.824Z,48.83
2023-05-14T22:12:43.360Z,58.15
2023-05-14T22:15:11.222Z,58.47
2023-05-14T22:17:38.686Z,47.15
2023-05-14T22:20:10.161Z,51.38
2023-05-14T22:22:37.548Z,59.15
2023-05-14T22:25:05.231Z,51.25
2023-05-14T22:27:32.246Z,68.07
2023-05-14T22:29:59.190Z,65.00
2023-05-14T22:32:26.056Z,69.38
2023-05-14T22:34:52.932Z,68.50
2023-05-14T22:37:21.274Z,61.47
2023-05-14T22:39:48.098Z,70.57
2023-05-14T22:42:14.955Z,59.55
2023-05-14T22:44:41.809Z,58.55
2023-05-14T22:47:08.734Z,60.70
2023-05-14T22:49:35.583Z,58.75
2023-05-14T22:52:02.493Z,60.00
2023-05-14T22:54:30.726Z,62.70
2023-05-14T22:56:57.606Z,60.20
2023-05-14T22:59:24.434Z,62.65
2023-05-14T23:01:51.381Z,65.15
2023-05-14T23:04:18.266Z,61.13
2023-05-14T23:06:45.242Z,53.03
2023-05-14T23:09:12.145Z,62.67
2023-05-14T23:11:40.322Z,58.92
2023-05-14T23:14:07.198Z,63.65
2023-05-14T23:16:34.081Z,53.33
2023-05-14T23:19:01.248Z,52.97
2023-05-14T23:21:28.254Z,61.53
2023-05-14T23:23:55.180Z,55.90
2023-05-14T23:26:22.013Z,56.03
2023-05-14T23:28:51.187Z,63.22
2023-05-14T23:31:18.078Z,59.05
2023-05-14T23:33:45.040Z,49.67
2023-05-14T23:36:11.963Z,55.60
2023-05-14T23:38:38.969Z,57.20
2023-05-14T23:41:05.819Z,58.85
2023-05-14T23:43:33.871Z,58.30
2023-05-14T23:46:02.545Z,50.22
2023-05-14T23:48:29.666Z,54.88
2023-05-14T23:50:56.540Z,53.88
2023-05-14T23:53:23.470Z,47.15
2023-05-14T23:55:50.448Z,54.60
2023-05-14T23:58:17.482Z,54.13
